createdAt,value
2022-10-18T00:02:13.708Z,28.35
2022-10-18T00:04:40.258Z,30.08
2022-10-18T00:07:06.867Z,33.92
2022-10-18T00:09:33.611Z,26.92
2022-10-18T00:12:00.778Z,26.05
2022-10-18T00:14:27.327Z,29.90
2022-10-18T00:16:53.959Z,23.92
2022-10-18T00:19:20.472Z,27.65
2022-10-18T00:21:50.656Z,26.85
2022-10-18T00:24:17.304Z,18.70
2022-10-18T00:26:43.826Z,22.42
2022-10-18T00:29:14.186Z,22.05
2022-10-18T00:31:42.662Z,27.27
2022-10-18T00:34:14.997Z,22.77
2022-10-18T00:36:42.887Z,17.73
2022-10-18T00:39:15.576Z,23.67
2022-10-18T00:41:42.226Z,20.50
2022-10-18T00:44:11.695Z,30.00
2022-10-18T00:46:43.551Z,22.55
2022-10-18T00:49:21.808Z,20.38
2022-10-18T00:51:51.587Z,20.67
2022-10-18T00:54:19.562Z,26.88
2022-10-18T00:56:46.496Z,19.85
2022-10-18T00:59:17.981Z,20.90
2022-10-18T01:01:45.379Z,26.75
2022-10-18T01:04:14.734Z,21.55
2022-10-18T01:09:32.279Z,22.25
2022-10-18T01:12:28.957Z,21.58
2022-10-18T01:15:15.382Z,20.33
2022-10-18T01:17:54.754Z,25.52
2022-10-18T01:20:55.249Z,18.58
2022-10-18T01:23:41.975Z,24.05
2022-10-18T01:26:50.515Z,24.85
2022-10-18T01:29:16.957Z,20.08
2022-10-18T01:31:50.414Z,27.77
2022-10-18T01:34:18.789Z,27.00
2022-10-18T01:36:51.964Z,25.70
2022-10-18T01:39:29.449Z,25.23
2022-10-18T01:41:58.451Z,15.65
2022-10-18T01:44:29.443Z,19.83
2022-10-18T01:46:58.192Z,23.10
2022-10-18T01:49:25.861Z,23.98
2022-10-18T01:51:53.255Z,19.10
2022-10-18T01:54:27.663Z,22.48
2022-10-18T01:57:03.574Z,22.80
2022-10-18T02:00:01.727Z,18.80
2022-10-18T02:02:28.348Z,23.95
2022-10-18T02:04:54.894Z,23.33
2022-10-18T02:07:21.314Z,20.70
2022-10-18T02:09:58.227Z,24.85
2022-10-18T02:12:26.065Z,19.73
2022-10-18T02:14:53.304Z,19.55
2022-10-18T02:17:21.737Z,23.08
2022-10-18T02:19:51.844Z,31.80
2022-10-18T02:22:19.511Z,22.35
2022-10-18T02:24:55.157Z,23.35
2022-10-18T02:27:22.460Z,20.95
2022-10-18T02:29:49.545Z,29.33
2022-10-18T02:32:34.067Z,24.10
2022-10-18T02:35:06.797Z,27.00
2022-10-18T02:37:38.056Z,27.58
2022-10-18T02:40:07.323Z,24.67
2022-10-18T02:42:39.090Z,28.75
2022-10-18T02:45:06.797Z,16.90
2022-10-18T02:47:33.508Z,21.25
2022-10-18T02:50:00.356Z,20.83
2022-10-18T02:52:26.824Z,21.88
2022-10-18T02:54:53.355Z,23.00
2022-10-18T02:57:19.881Z,27.02
2022-10-18T02:59:46.629Z,26.52
2022-10-18T03:02:13.134Z,22.92
2022-10-18T03:04:39.639Z,15.30
2022-10-18T03:07:06.163Z,17.85
2022-10-18T03:09:32.699Z,19.00
2022-10-18T03:11:59.665Z,17.33
2022-10-18T03:14:26.155Z,25.30
2022-10-18T03:16:52.717Z,13.85
2022-10-18T03:19:19.214Z,15.80
2022-10-18T03:21:45.754Z,19.95
2022-10-18T03:24:12.323Z,14.48
2022-10-18T03:26:38.826Z,15.98
2022-10-18T03:29:05.457Z,18.75
2022-10-18T03:31:32.379Z,17.60
2022-10-18T03:33:59.031Z,17.70
2022-10-18T03:36:27.633Z,20.38
2022-10-18T03:38:54.162Z,19.85
2022-10-18T03:41:20.924Z,18.20
2022-10-18T03:43:47.732Z,20.40
2022-10-18T03:46:14.300Z,22.23
2022-10-18T03:48:40.819Z,14.15
2022-10-18T03:51:07.531Z,17.67
2022-10-18T03:53:34.007Z,14.77
2022-10-18T03:56:00.489Z,13.90
2022-10-18T03:58:27.021Z,19.33
2022-10-18T04:00:55.256Z,13.88
2022-10-18T04:03:24.237Z,17.08
2022-10-18T04:05:51.074Z,14.38
2022-10-18T04:08:18.223Z,18.45
2022-10-18T04:10:45.499Z,18.45
2022-10-18T04:13:12.119Z,15.13
2022-10-18T04:15:38.722Z,15.40
2022-10-18T04:18:05.218Z,12.10
2022-10-18T04:20:31.697Z,14.02
2022-10-18T04:22:58.358Z,14.75
2022-10-18T04:25:25.282Z,15.65
2022-10-18T04:27:52.115Z,12.32
2022-10-18T04:30:18.612Z,13.05
2022-10-18T04:32:45.073Z,20.30
2022-10-18T04:35:11.614Z,19.92
2022-10-18T04:37:38.177Z,17.25
2022-10-18T04:40:05.313Z,14.05
2022-10-18T04:42:31.958Z,20.15
2022-10-18T04:44:58.438Z,24.38
2022-10-18T04:47:24.950Z,50.78
2022-10-18T04:49:51.422Z,25.02
2022-10-18T04:52:17.905Z,19.88
2022-10-18T04:54:44.384Z,33.83
2022-10-18T04:57:10.856Z,22.15
2022-10-18T04:59:37.476Z,30.90
2022-10-18T05:02:04.837Z,42.22
2022-10-18T05:04:31.510Z,46.65
2022-10-18T05:06:58.021Z,59.47
2022-10-18T05:09:24.887Z,115.78
2022-10-18T05:11:51.541Z,108.47
2022-10-18T05:14:18.192Z,139.10
2022-10-18T05:16:44.702Z,191.13
2022-10-18T05:19:11.180Z,167.68
2022-10-18T05:21:37.963Z,99.60
2022-10-18T05:24:04.708Z,118.80
2022-10-18T05:26:33.972Z,164.63
2022-10-18T05:29:00.617Z,118.22
2022-10-18T05:31:27.276Z,89.75
2022-10-18T05:33:53.748Z,120.03
2022-10-18T05:36:20.348Z,130.15
2022-10-18T05:38:48.276Z,111.25
2022-10-18T05:41:15.147Z,64.45
2022-10-18T05:43:41.650Z,94.70
2022-10-18T05:46:13.723Z,79.63
2022-10-18T05:48:43.417Z,78.13
2022-10-18T05:51:09.916Z,92.13
2022-10-18T05:53:37.442Z,84.03
2022-10-18T05:56:04.624Z,161.95
2022-10-18T05:58:31.176Z,148.82
2022-10-18T06:01:01.999Z,93.07
2022-10-18T06:03:30.520Z,55.03
2022-10-18T06:06:04.322Z,59.40
2022-10-18T06:08:30.947Z,119.65
2022-10-18T06:10:57.522Z,110.03
2022-10-18T06:13:24.308Z,93.38
2022-10-18T06:15:50.869Z,101.07
2022-10-18T06:18:17.453Z,87.03
2022-10-18T06:20:43.974Z,107.95
2022-10-18T06:23:10.504Z,115.55
2022-10-18T06:25:37.070Z,102.57
2022-10-18T06:28:09.041Z,85.18
2022-10-18T06:30:38.000Z,58.42
2022-10-18T06:33:04.454Z,87.13
2022-10-18T06:35:31.036Z,84.07
2022-10-18T06:37:57.794Z,62.30
2022-10-18T06:40:24.608Z,132.60
2022-10-18T06:43:00.126Z,63.45
2022-10-18T06:45:26.875Z,71.05
2022-10-18T06:47:53.325Z,75.93
2022-10-18T06:50:19.775Z,89.75
2022-10-18T06:52:48.555Z,169.88
2022-10-18T06:55:15.159Z,93.35
2022-10-18T06:57:41.616Z,89.60
2022-10-18T07:00:09.022Z,120.40
2022-10-18T07:02:35.649Z,107.68
2022-10-18T07:05:02.158Z,79.30
2022-10-18T07:07:31.864Z,81.30
2022-10-18T07:09:58.758Z,92.05
2022-10-18T07:12:25.389Z,111.30
2022-10-18T07:14:51.977Z,124.63
2022-10-18T07:17:18.487Z,70.63
2022-10-18T07:19:45.004Z,56.33
2022-10-18T07:22:11.565Z,76.43
2022-10-18T07:24:38.073Z,49.10
2022-10-18T07:27:04.987Z,83.03
2022-10-18T07:29:31.978Z,29.48
2022-10-18T07:31:58.451Z,32.40
2022-10-18T07:34:25.002Z,40.15
2022-10-18T07:36:52.180Z,42.05
2022-10-18T07:39:18.736Z,72.55
2022-10-18T07:41:45.246Z,63.50
2022-10-18T07:44:11.741Z,59.47
2022-10-18T07:46:38.344Z,129.65
2022-10-18T07:49:04.858Z,42.28
2022-10-18T07:51:32.823Z,96.43
2022-10-18T07:53:59.609Z,108.50
2022-10-18T07:56:26.095Z,78.55
2022-10-18T07:58:54.386Z,74.70
2022-10-18T08:01:22.902Z,92.60
2022-10-18T08:03:50.159Z,74.63
2022-10-18T08:06:18.618Z,65.40
2022-10-18T08:08:45.878Z,32.17
2022-10-18T08:11:21.027Z,118.75
2022-10-18T08:13:47.853Z,114.70
2022-10-18T08:16:23.819Z,106.38
2022-10-18T08:18:50.899Z,206.95
2022-10-18T08:21:19.138Z,83.47
2022-10-18T08:23:46.261Z,135.95
2022-10-18T08:26:15.783Z,131.05
2022-10-18T08:28:49.125Z,143.57
2022-10-18T08:31:20.894Z,83.50
2022-10-18T08:33:47.526Z,262.80
2022-10-18T08:36:16.120Z,198.73
2022-10-18T08:38:43.698Z,507.27
2022-10-18T08:41:35.216Z,231.63
2022-10-18T08:44:24.726Z,179.70
2022-10-18T08:46:55.404Z,184.35
2022-10-18T08:49:46.804Z,249.82
2022-10-18T08:52:18.411Z,122.03
2022-10-18T08:54:55.854Z,176.90
2022-10-18T08:57:22.439Z,239.00
2022-10-18T08:59:49.029Z,208.77
2022-10-18T09:02:31.843Z,232.85
2022-10-18T09:05:28.259Z,161.20
2022-10-18T09:07:54.749Z,147.07
2022-10-18T09:10:59.714Z,299.38
2022-10-18T09:13:37.884Z,247.88
2022-10-18T09:16:11.122Z,217.32
2022-10-18T09:18:57.670Z,161.57
2022-10-18T09:21:36.948Z,285.48
2022-10-18T09:24:19.882Z,144.55
2022-10-18T09:26:49.051Z,187.13
2022-10-18T09:29:33.126Z,182.25
2022-10-18T09:32:12.447Z,164.60
2022-10-18T09:34:51.185Z,162.57
2022-10-18T09:37:21.038Z,114.05
2022-10-18T09:39:50.908Z,159.68
2022-10-18T09:42:26.980Z,172.98
2022-10-18T09:45:00.920Z,105.82
2022-10-18T09:47:41.544Z,98.38
2022-10-18T09:50:19.907Z,107.38
2022-10-18T09:52:58.828Z,70.65
2022-10-18T09:55:32.550Z,49.58
2022-10-18T09:58:02.770Z,58.03
2022-10-18T10:00:35.188Z,58.60
2022-10-18T10:03:02.686Z,57.63
2022-10-18T10:05:29.569Z,48.15
2022-10-18T10:07:59.993Z,44.70
2022-10-18T10:10:29.867Z,32.03
2022-10-18T10:13:06.943Z,40.08
2022-10-18T10:15:38.169Z,31.55
2022-10-18T10:18:22.162Z,34.88
2022-10-18T10:20:52.799Z,31.23
2022-10-18T10:23:30.735Z,27.55
2022-10-18T10:26:01.813Z,24.23
2022-10-18T10:28:31.619Z,26.52
2022-10-18T10:31:17.724Z,19.40
2022-10-18T10:33:47.629Z,28.17
2022-10-18T10:36:20.468Z,22.80
2022-10-18T10:39:04.128Z,21.27
2022-10-18T10:44:02.613Z,19.85
2022-10-18T10:46:36.664Z,23.20
2022-10-18T10:49:35.066Z,23.48
2022-10-18T10:52:08.548Z,21.02
2022-10-18T10:54:39.278Z,20.58
2022-10-18T10:57:16.609Z,20.40
2022-10-18T10:59:46.557Z,19.23
2022-10-18T11:02:15.407Z,16.60
2022-10-18T11:04:42.987Z,21.35
2022-10-18T11:07:10.263Z,20.90
2022-10-18T11:09:49.509Z,20.98
2022-10-18T11:12:25.564Z,17.38
2022-10-18T11:15:10.226Z,19.30
2022-10-18T11:17:40.795Z,17.38
2022-10-18T11:20:09.808Z,22.27
2022-10-18T11:22:45.013Z,24.15
2022-10-18T11:25:15.585Z,21.85
2022-10-18T11:27:54.734Z,15.73
2022-10-18T11:30:38.714Z,18.73
2022-10-18T11:33:17.934Z,12.48
2022-10-18T11:35:47.899Z,18.10
2022-10-18T11:38:21.738Z,14.82
2022-10-18T11:41:00.580Z,18.48
2022-10-18T11:44:00.682Z,12.82
2022-10-18T11:46:54.640Z,15.18
2022-10-18T11:49:39.144Z,12.50
2022-10-18T11:52:29.802Z,15.90
2022-10-18T11:55:06.578Z,12.30
2022-10-18T11:58:00.003Z,13.60
2022-10-18T12:00:46.852Z,11.38
2022-10-18T12:03:20.198Z,8.45
2022-10-18T12:05:50.694Z,11.82
2022-10-18T12:08:30.699Z,7.57
2022-10-18T12:11:05.500Z,11.27
2022-10-18T12:13:48.827Z,11.40
2022-10-18T12:16:33.533Z,11.48
2022-10-18T12:19:15.089Z,9.63
2022-10-18T12:21:43.770Z,11.77
2022-10-18T12:24:18.649Z,13.73
2022-10-18T12:26:48.787Z,10.40
2022-10-18T12:29:33.397Z,10.60
2022-10-18T12:32:07.528Z,11.05
2022-10-18T12:34:46.709Z,12.65
2022-10-18T12:37:32.801Z,10.45
2022-10-18T12:40:14.251Z,10.52
2022-10-18T12:42:47.204Z,6.97
2022-10-18T12:45:20.745Z,7.32
2022-10-18T12:47:47.658Z,12.02
2022-10-18T12:50:31.367Z,9.05
2022-10-18T12:53:04.222Z,10.23
2022-10-18T12:55:36.916Z,11.23
2022-10-18T12:58:21.947Z,9.15
2022-10-18T13:00:49.318Z,12.07
2022-10-18T13:03:17.407Z,10.27
2022-10-18T13:05:55.256Z,7.72
2022-10-18T13:08:34.288Z,9.82
2022-10-18T13:11:10.596Z,12.77
2022-10-18T13:13:45.868Z,10.88
2022-10-18T13:16:23.213Z,10.70
2022-10-18T13:18:57.333Z,6.00
2022-10-18T13:21:34.907Z,10.57
2022-10-18T13:24:22.556Z,5.90
2022-10-18T13:27:18.097Z,10.55
2022-10-18T13:29:56.779Z,12.75
2022-10-18T13:32:37.619Z,6.65
2022-10-18T13:35:34.127Z,11.98
2022-10-18T13:38:01.665Z,12.10
2022-10-18T13:40:29.451Z,7.07
2022-10-18T13:42:56.340Z,13.32
2022-10-18T13:45:33.522Z,9.02
2022-10-18T13:48:19.472Z,8.02
2022-10-18T13:50:49.758Z,8.32
2022-10-18T13:53:25.160Z,8.63
2022-10-18T13:55:56.040Z,8.40
2022-10-18T13:58:33.636Z,8.07
2022-10-18T14:01:14.370Z,5.55
2022-10-18T14:04:00.508Z,8.82
2022-10-18T14:06:33.821Z,8.65
2022-10-18T14:09:25.649Z,8.35
2022-10-18T14:12:16.830Z,10.57
2022-10-18T14:14:46.004Z,12.43
2022-10-18T14:17:20.391Z,8.00
2022-10-18T14:19:56.877Z,12.20
2022-10-18T14:25:01.341Z,10.93
2022-10-18T14:27:33.093Z,13.55
2022-10-18T14:30:10.471Z,11.38
2022-10-18T14:32:37.566Z,12.27
2022-10-18T14:37:54.326Z,14.15
2022-10-18T14:40:30.837Z,8.25
2022-10-18T14:43:03.539Z,12.15
2022-10-18T14:45:30.479Z,6.07
2022-10-18T14:48:06.305Z,10.65
2022-10-18T14:50:33.851Z,11.32
2022-10-18T14:53:07.243Z,6.65
2022-10-18T14:55:35.636Z,10.93
2022-10-18T14:58:03.158Z,9.63
2022-10-18T15:00:36.267Z,7.18
2022-10-18T15:03:07.463Z,8.75
2022-10-18T15:05:34.448Z,7.78
2022-10-18T15:08:01.881Z,9.50
2022-10-18T15:10:32.669Z,8.75
2022-10-18T15:13:11.280Z,8.00
2022-10-18T15:15:39.499Z,14.40
2022-10-18T15:18:08.648Z,10.10
2022-10-18T15:20:42.825Z,11.45
2022-10-18T15:23:24.435Z,6.55
2022-10-18T15:25:53.995Z,9.18
2022-10-18T15:28:31.530Z,11.15
2022-10-18T15:30:59.087Z,10.70
2022-10-18T15:33:27.679Z,13.65
2022-10-18T15:35:55.245Z,10.15
2022-10-18T15:38:27.903Z,11.25
2022-10-18T15:40:56.597Z,9.15
2022-10-18T15:43:24.236Z,11.45
2022-10-18T15:45:55.584Z,9.02
2022-10-18T15:48:30.925Z,9.27
2022-10-18T15:51:05.327Z,10.32
2022-10-18T15:53:38.245Z,11.90
2022-10-18T15:56:07.112Z,8.70
2022-10-18T15:58:40.037Z,13.57
2022-10-18T16:01:16.412Z,12.90
2022-10-18T16:06:15.882Z,7.97
2022-10-18T16:08:48.971Z,12.35
2022-10-18T16:11:22.204Z,9.90
2022-10-18T16:13:49.746Z,8.50
2022-10-18T16:16:20.654Z,10.73
2022-10-18T16:18:48.126Z,13.45
2022-10-18T16:21:18.156Z,8.98
2022-10-18T16:23:45.940Z,12.43
2022-10-18T16:26:13.916Z,10.77
2022-10-18T16:28:41.784Z,9.90
2022-10-18T16:31:13.241Z,12.55
2022-10-18T16:33:40.550Z,12.45
2022-10-18T16:36:07.958Z,8.77
2022-10-18T16:38:37.301Z,9.60
2022-10-18T16:41:05.755Z,13.68
2022-10-18T16:43:34.972Z,8.05
2022-10-18T16:46:03.382Z,11.45
2022-10-18T16:48:33.479Z,10.85
2022-10-18T16:51:00.978Z,10.20
2022-10-18T16:53:29.020Z,9.07
2022-10-18T16:56:00.226Z,11.07
2022-10-18T16:58:29.633Z,12.75
2022-10-18T17:00:57.129Z,11.07
2022-10-18T17:03:24.860Z,9.52
2022-10-18T17:05:53.148Z,10.80
2022-10-18T17:08:23.885Z,12.65
2022-10-18T17:10:53.285Z,10.85
2022-10-18T17:13:22.035Z,11.88
2022-10-18T17:15:50.306Z,12.32
2022-10-18T17:18:22.179Z,19.75
2022-10-18T17:20:50.146Z,13.40
2022-10-18T17:23:17.357Z,12.13
2022-10-18T17:25:57.580Z,10.93
2022-10-18T17:28:32.310Z,13.93
2022-10-18T17:30:59.345Z,14.02
2022-10-18T17:33:26.310Z,7.32
2022-10-18T17:35:53.292Z,8.93
2022-10-18T17:38:20.723Z,10.80
2022-10-18T17:40:47.669Z,14.00
2022-10-18T17:43:14.787Z,10.35
2022-10-18T17:45:51.240Z,15.10
2022-10-18T17:50:45.669Z,12.25
2022-10-18T17:53:13.458Z,11.38
2022-10-18T17:55:40.976Z,15.52
2022-10-18T17:58:08.281Z,11.82
2022-10-18T18:00:35.359Z,14.95
2022-10-18T18:03:02.834Z,10.68
2022-10-18T18:05:33.206Z,8.15
2022-10-18T18:08:03.998Z,11.63
2022-10-18T18:10:33.820Z,10.80
2022-10-18T18:13:01.963Z,11.73
2022-10-18T18:15:29.140Z,9.88
2022-10-18T18:17:57.422Z,7.53
2022-10-18T18:20:27.221Z,12.90
2022-10-18T18:22:54.486Z,10.82
2022-10-18T18:25:21.558Z,15.90
2022-10-18T18:27:48.779Z,5.90
2022-10-18T18:30:18.199Z,10.43
2022-10-18T18:32:45.466Z,9.13
2022-10-18T18:35:12.879Z,10.15
2022-10-18T18:37:40.135Z,6.35
2022-10-18T18:40:08.287Z,7.82
2022-10-18T18:42:35.786Z,14.23
2022-10-18T18:45:03.173Z,8.68
2022-10-18T18:47:30.278Z,8.38
2022-10-18T18:49:57.309Z,8.25
2022-10-18T18:52:24.415Z,7.63
2022-10-18T18:54:51.993Z,9.68
2022-10-18T18:57:19.051Z,6.80
2022-10-18T18:59:46.758Z,7.70
2022-10-18T19:02:15.539Z,10.40
2022-10-18T19:04:42.755Z,7.72
2022-10-18T19:07:09.995Z,9.35
2022-10-18T19:09:39.072Z,8.40
2022-10-18T19:12:06.571Z,7.72
2022-10-18T19:14:34.021Z,8.68
2022-10-18T19:17:05.238Z,12.35
2022-10-18T19:19:33.129Z,11.00
2022-10-18T19:22:04.065Z,12.70
2022-10-18T19:24:33.391Z,9.45
2022-10-18T19:27:05.105Z,11.07
2022-10-18T19:29:36.037Z,10.82
2022-10-18T19:32:09.942Z,11.40
2022-10-18T19:34:37.314Z,9.90
2022-10-18T19:37:04.634Z,9.90
2022-10-18T19:39:34.702Z,13.40
2022-10-18T19:42:05.838Z,10.68
2022-10-18T19:44:36.420Z,7.85
2022-10-18T19:47:05.012Z,10.07
2022-10-18T19:49:32.632Z,13.20
2022-10-18T19:51:59.879Z,18.58
2022-10-18T19:54:27.212Z,13.18
2022-10-18T19:56:54.391Z,13.82
2022-10-18T19:59:23.182Z,9.32
2022-10-18T20:01:50.799Z,13.48
2022-10-18T20:04:18.426Z,10.48
2022-10-18T20:06:45.741Z,14.85
2022-10-18T20:09:16.250Z,12.45
2022-10-18T20:11:47.311Z,9.05
2022-10-18T20:14:14.522Z,14.65
2022-10-18T20:16:41.557Z,9.80
2022-10-18T20:19:09.877Z,15.32
2022-10-18T20:21:37.024Z,11.65
2022-10-18T20:24:06.335Z,11.02
2022-10-18T20:26:33.869Z,9.20
2022-10-18T20:29:01.000Z,13.40
2022-10-18T20:31:31.073Z,10.35
2022-10-18T20:34:01.025Z,14.88
2022-10-18T20:36:30.157Z,7.35
2022-10-18T20:38:57.582Z,11.80
2022-10-18T20:41:28.605Z,12.20
2022-10-18T20:44:00.171Z,10.00
2022-10-18T20:46:29.853Z,11.30
2022-10-18T20:48:56.959Z,8.40
2022-10-18T20:51:24.291Z,7.55
2022-10-18T20:53:52.257Z,10.20
2022-10-18T20:56:22.033Z,9.35
2022-10-18T20:58:51.145Z,12.02
2022-10-18T21:01:21.353Z,12.02
2022-10-18T21:03:50.777Z,7.57
2022-10-18T21:06:20.033Z,9.50
2022-10-18T21:08:48.439Z,15.98
2022-10-18T21:11:15.514Z,10.13
2022-10-18T21:13:42.489Z,9.45
2022-10-18T21:16:09.748Z,10.77
2022-10-18T21:18:37.919Z,9.43
2022-10-18T21:21:15.101Z,14.48
2022-10-18T21:23:42.148Z,13.10
2022-10-18T21:26:14.870Z,10.15
2022-10-18T21:28:41.971Z,11.30
2022-10-18T21:31:12.970Z,14.13
2022-10-18T21:33:41.718Z,13.18
2022-10-18T21:36:09.212Z,9.25
2022-10-18T21:38:36.391Z,9.32
2022-10-18T21:41:08.352Z,16.75
2022-10-18T21:43:35.219Z,11.57
2022-10-18T21:46:02.683Z,12.65
2022-10-18T21:48:29.630Z,12.85
2022-10-18T21:50:56.525Z,12.50
2022-10-18T21:53:23.429Z,19.52
2022-10-18T21:55:50.365Z,13.20
2022-10-18T21:58:17.271Z,14.20
2022-10-18T22:00:44.233Z,12.23
2022-10-18T22:03:13.187Z,12.40
2022-10-18T22:05:40.626Z,11.88
2022-10-18T22:08:08.130Z,11.90
2022-10-18T22:10:35.011Z,15.93
2022-10-18T22:13:01.910Z,19.55
2022-10-18T22:15:28.789Z,15.77
2022-10-18T22:17:55.680Z,17.30
2022-10-18T22:20:22.502Z,12.98
2022-10-18T22:22:54.209Z,14.82
2022-10-18T22:25:21.050Z,12.32
2022-10-18T22:27:47.881Z,12.02
2022-10-18T22:30:14.800Z,12.05
2022-10-18T22:32:41.668Z,14.57
2022-10-18T22:35:09.031Z,16.80
2022-10-18T22:37:36.194Z,13.45
2022-10-18T22:40:03.562Z,18.58
2022-10-18T22:42:30.440Z,13.98
2022-10-18T22:44:57.268Z,18.90
2022-10-18T22:47:25.416Z,14.68
2022-10-18T22:49:52.339Z,16.08
2022-10-18T22:52:19.141Z,17.63
2022-10-18T22:54:45.968Z,14.43
2022-10-18T22:57:12.780Z,10.70
2022-10-18T22:59:39.592Z,15.57
2022-10-18T23:02:06.464Z,10.82
2022-10-18T23:04:33.718Z,11.80
2022-10-18T23:07:00.608Z,19.42
2022-10-18T23:09:27.489Z,10.88
2022-10-18T23:11:54.350Z,13.60
2022-10-18T23:14:21.219Z,11.85
2022-10-18T23:16:48.112Z,14.20
2022-10-18T23:19:16.418Z,17.88
2022-10-18T23:21:43.519Z,11.88
2022-10-18T23:24:10.379Z,10.13
2022-10-18T23:26:37.288Z,16.70
2022-10-18T23:29:04.306Z,16.38
2022-10-18T23:31:33.422Z,16.75
2022-10-18T23:34:03.957Z,14.60
2022-10-18T23:36:32.815Z,12.63
2022-10-18T23:38:59.799Z,18.48
2022-10-18T23:41:26.923Z,13.73
2022-10-18T23:43:54.319Z,14.10
2022-10-18T23:46:21.919Z,17.52
2022-10-18T23:48:50.064Z,13.77
2022-10-18T23:51:17.647Z,12.50
2022-10-18T23:53:44.660Z,14.05
2022-10-18T23:56:14.353Z,18.92
2022-10-18T23:58:42.696Z,13.57
